sensor_id;sensor_type;location;lat;lon;timestamp;P1;durP1;ratioP1;P2;durP2;ratioP2
5279;SDS011;2663;53.588;10.010;2023-04-26T00:01:34;1.70;;;1.03;;
5279;SDS011;2663;53.588;10.010;2023-04-26T00:04:01;3.90;;;1.33;;
5279;SDS011;2663;53.588;10.010;2023-04-26T00:06:28;2.53;;;1.00;;
5279;SDS011;2663;53.588;10.010;2023-04-26T00:08:55;3.47;;;0.90;;
5279;SDS011;2663;53.588;10.010;2023-04-26T00:11:21;9.10;;;1.27;;
5279;SDS011;2663;53.588;10.010;2023-04-26T00:13:48;9.80;;;1.80;;
5279;SDS011;2663;53.588;10.010;2023-04-26T00:16:15;8.93;;;3.50;;
5279;SDS011;2663;53.588;10.010;2023-04-26T00:18:43;8.63;;;1.70;;
5279;SDS011;2663;53.588;10.010;2023-04-26T00:21:11;5.63;;;1.20;;
5279;SDS011;2663;53.588;10.010;2023-04-26T00:23:38;6.87;;;1.83;;
5279;SDS011;2663;53.588;10.010;2023-04-26T00:26:04;3.30;;;1.23;;
5279;SDS011;2663;53.588;10.010;2023-04-26T00:28:31;6.10;;;1.37;;
5279;SDS011;2663;53.588;10.010;2023-04-26T00:30:58;15.87;;;1.80;;
5279;SDS011;2663;53.588;10.010;2023-04-26T00:33:24;8.20;;;1.33;;
5279;SDS011;2663;53.588;10.010;2023-04-26T00:35:51;2.47;;;0.83;;
5279;SDS011;2663;53.588;10.010;2023-04-26T00:38:18;5.70;;;1.43;;
5279;SDS011;2663;53.588;10.010;2023-04-26T00:40:44;4.60;;;1.60;;
5279;SDS011;2663;53.588;10.010;2023-04-26T00:43:11;7.90;;;1.30;;
5279;SDS011;2663;53.588;10.010;2023-04-26T00:45:38;11.30;;;1.40;;
5279;SDS011;2663;53.588;10.010;2023-04-26T00:48:05;6.73;;;1.40;;
5279;SDS011;2663;53.588;10.010;2023-04-26T00:50:32;10.93;;;1.70;;
5279;SDS011;2663;53.588;10.010;2023-04-26T00:52:59;8.13;;;1.60;;
5279;SDS011;2663;53.588;10.010;2023-04-26T00:55:27;13.77;;;2.30;;
5279;SDS011;2663;53.588;10.010;2023-04-26T00:57:54;9.73;;;1.40;;
5279;SDS011;2663;53.588;10.010;2023-04-26T01:00:21;4.73;;;1.60;;
5279;SDS011;2663;53.588;10.010;2023-04-26T01:02:47;4.30;;;1.50;;
5279;SDS011;2663;53.588;10.010;2023-04-26T01:05:14;6.10;;;1.93;;
5279;SDS011;2663;53.588;10.010;2023-04-26T01:07:41;8.37;;;2.07;;
5279;SDS011;2663;53.588;10.010;2023-04-26T01:10:08;3.30;;;1.10;;
5279;SDS011;2663;53.588;10.010;2023-04-26T01:12:35;2.87;;;1.30;;
5279;SDS011;2663;53.588;10.010;2023-04-26T01:15:04;5.57;;;1.60;;
5279;SDS011;2663;53.588;10.010;2023-04-26T01:17:31;4.50;;;1.50;;
5279;SDS011;2663;53.588;10.010;2023-04-26T01:19:58;4.33;;;1.97;;
5279;SDS011;2663;53.588;10.010;2023-04-26T01:22:24;15.80;;;3.30;;
5279;SDS011;2663;53.588;10.010;2023-04-26T01:24:51;4.90;;;1.30;;
5279;SDS011;2663;53.588;10.010;2023-04-26T01:27:21;3.03;;;1.70;;
5279;SDS011;2663;53.588;10.010;2023-04-26T01:29:48;8.33;;;1.90;;
5279;SDS011;2663;53.588;10.010;2023-04-26T01:32:14;8.33;;;2.27;;
5279;SDS011;2663;53.588;10.010;2023-04-26T01:34:41;4.13;;;1.70;;
5279;SDS011;2663;53.588;10.010;2023-04-26T01:37:08;8.67;;;2.97;;
5279;SDS011;2663;53.588;10.010;2023-04-26T01:39:35;6.77;;;2.00;;
5279;SDS011;2663;53.588;10.010;2023-04-26T01:42:02;6.77;;;2.20;;
5279;SDS011;2663;53.588;10.010;2023-04-26T01:44:29;4.00;;;1.37;;
5279;SDS011;2663;53.588;10.010;2023-04-26T01:46:56;8.77;;;2.97;;
5279;SDS011;2663;53.588;10.010;2023-04-26T01:49:23;13.70;;;2.40;;
5279;SDS011;2663;53.588;10.010;2023-04-26T01:51:50;7.43;;;1.97;;
5279;SDS011;2663;53.588;10.010;2023-04-26T01:54:16;15.33;;;2.97;;
5279;SDS011;2663;53.588;10.010;2023-04-26T01:56:43;13.13;;;2.63;;
5279;SDS011;2663;53.588;10.010;2023-04-26T01:59:10;11.93;;;2.90;;
5279;SDS011;2663;53.588;10.010;2023-04-26T02:01:37;6.13;;;1.80;;
5279;SDS011;2663;53.588;10.010;2023-04-26T02:04:06;4.13;;;2.00;;
5279;SDS011;2663;53.588;10.010;2023-04-26T02:06:32;2.77;;;1.40;;
5279;SDS011;2663;53.588;10.010;2023-04-26T02:08:59;11.33;;;1.90;;
5279;SDS011;2663;53.588;10.010;2023-04-26T02:11:26;10.27;;;2.50;;
5279;SDS011;2663;53.588;10.010;2023-04-26T02:13:53;11.67;;;2.20;;
5279;SDS011;2663;53.588;10.010;2023-04-26T02:16:19;4.87;;;1.90;;
5279;SDS011;2663;53.588;10.010;2023-04-26T02:18:47;16.97;;;3.10;;
5279;SDS011;2663;53.588;10.010;2023-04-26T02:21:15;6.73;;;2.40;;
5279;SDS011;2663;53.588;10.010;2023-04-26T02:23:43;8.20;;;1.87;;
5279;SDS011;2663;53.588;10.010;2023-04-26T02:26:10;7.97;;;2.30;;
5279;SDS011;2663;53.588;10.010;2023-04-26T02:28:37;8.20;;;2.47;;
5279;SDS011;2663;53.588;10.010;2023-04-26T02:31:04;9.40;;;2.50;;
5279;SDS011;2663;53.588;10.010;2023-04-26T02:33:31;6.60;;;2.27;;
5279;SDS011;2663;53.588;10.010;2023-04-26T02:35:58;12.27;;;2.17;;
5279;SDS011;2663;53.588;10.010;2023-04-26T02:38:27;4.43;;;2.27;;
5279;SDS011;2663;53.588;10.010;2023-04-26T02:40:57;9.33;;;1.87;;
5279;SDS011;2663;53.588;10.010;2023-04-26T02:43:25;3.07;;;1.50;;
5279;SDS011;2663;53.588;10.010;2023-04-26T02:45:52;4.93;;;3.20;;
5279;SDS011;2663;53.588;10.010;2023-04-26T02:48:18;7.40;;;2.30;;
5279;SDS011;2663;53.588;10.010;2023-04-26T02:50:45;7.20;;;1.90;;
5279;SDS011;2663;53.588;10.010;2023-04-26T02:53:12;13.17;;;1.63;;
5279;SDS011;2663;53.588;10.010;2023-04-26T02:55:39;3.30;;;1.87;;
5279;SDS011;2663;53.588;10.010;2023-04-26T02:58:05;2.13;;;1.60;;
5279;SDS011;2663;53.588;10.010;2023-04-26T03:00:32;6.10;;;1.90;;
5279;SDS011;2663;53.588;10.010;2023-04-26T03:02:59;6.43;;;2.23;;
5279;SDS011;2663;53.588;10.010;2023-04-26T03:05:26;10.97;;;2.87;;
5279;SDS011;2663;53.588;10.010;2023-04-26T03:07:53;5.93;;;1.83;;
5279;SDS011;2663;53.588;10.010;2023-04-26T03:10:20;8.13;;;2.30;;
5279;SDS011;2663;53.588;10.010;2023-04-26T03:12:46;13.43;;;2.43;;
5279;SDS011;2663;53.588;10.010;2023-04-26T03:15:13;6.87;;;2.30;;
5279;SDS011;2663;53.588;10.010;2023-04-26T03:17:40;7.67;;;2.40;;
5279;SDS011;2663;53.588;10.010;2023-04-26T03:20:08;4.93;;;2.40;;
5279;SDS011;2663;53.588;10.010;2023-04-26T03:22:37;6.13;;;2.30;;
5279;SDS011;2663;53.588;10.010;2023-04-26T03:25:04;6.07;;;2.47;;
5279;SDS011;2663;53.588;10.010;2023-04-26T03:27:31;21.43;;;2.73;;
5279;SDS011;2663;53.588;10.010;2023-04-26T03:29:58;8.30;;;2.57;;
5279;SDS011;2663;53.588;10.010;2023-04-26T03:32:25;5.07;;;2.53;;
5279;SDS011;2663;53.588;10.010;2023-04-26T03:34:52;5.43;;;2.20;;
5279;SDS011;2663;53.588;10.010;2023-04-26T03:37:18;10.00;;;2.87;;
5279;SDS011;2663;53.588;10.010;2023-04-26T03:39:45;10.30;;;2.50;;
5279;SDS011;2663;53.588;10.010;2023-04-26T03:42:12;9.67;;;2.80;;
5279;SDS011;2663;53.588;10.010;2023-04-26T03:44:38;8.87;;;2.17;;
5279;SDS011;2663;53.588;10.010;2023-04-26T03:47:05;8.20;;;2.20;;
5279;SDS011;2663;53.588;10.010;2023-04-26T03:49:32;7.60;;;2.60;;
5279;SDS011;2663;53.588;10.010;2023-04-26T03:51:58;7.00;;;2.40;;
5279;SDS011;2663;53.588;10.010;2023-04-26T03:54:25;10.20;;;2.40;;
5279;SDS011;2663;53.588;10.010;2023-04-26T03:56:52;4.27;;;2.40;;
5279;SDS011;2663;53.588;10.010;2023-04-26T03:59:18;10.00;;;1.97;;
5279;SDS011;2663;53.588;10.010;2023-04-26T04:01:45;9.77;;;2.70;;
5279;SDS011;2663;53.588;10.010;2023-04-26T04:04:12;11.77;;;2.70;;
5279;SDS011;2663;53.588;10.010;2023-04-26T04:06:39;6.63;;;2.13;;
5279;SDS011;2663;53.588;10.010;2023-04-26T04:09:06;9.10;;;2.47;;
5279;SDS011;2663;53.588;10.010;2023-04-26T04:11:33;10.60;;;2.67;;
5279;SDS011;2663;53.588;10.010;2023-04-26T04:13:59;6.60;;;2.37;;
5279;SDS011;2663;53.588;10.010;2023-04-26T04:16:27;4.20;;;1.60;;
5279;SDS011;2663;53.588;10.010;2023-04-26T04:18:54;2.97;;;1.70;;
5279;SDS011;2663;53.588;10.010;2023-04-26T04:21:21;5.63;;;2.10;;
5279;SDS011;2663;53.588;10.010;2023-04-26T04:23:47;7.47;;;2.30;;
5279;SDS011;2663;53.588;10.010;2023-04-26T04:26:15;7.10;;;2.70;;
5279;SDS011;2663;53.588;10.010;2023-04-26T04:28:42;8.83;;;2.10;;
5279;SDS011;2663;53.588;10.010;2023-04-26T04:31:10;10.63;;;2.83;;
5279;SDS011;2663;53.588;10.010;2023-04-26T04:33:38;8.63;;;2.10;;
5279;SDS011;2663;53.588;10.010;2023-04-26T04:36:05;6.13;;;2.80;;
5279;SDS011;2663;53.588;10.010;2023-04-26T04:38:32;7.67;;;2.50;;
5279;SDS011;2663;53.588;10.010;2023-04-26T04:40:59;6.00;;;2.23;;
5279;SDS011;2663;53.588;10.010;2023-04-26T04:43:25;14.33;;;3.30;;
5279;SDS011;2663;53.588;10.010;2023-04-26T04:45:53;11.10;;;2.70;;
5279;SDS011;2663;53.588;10.010;2023-04-26T04:48:20;5.40;;;2.90;;
5279;SDS011;2663;53.588;10.010;2023-04-26T04:50:48;8.80;;;2.73;;
5279;SDS011;2663;53.588;10.010;2023-04-26T04:53:15;10.53;;;2.93;;
5279;SDS011;2663;53.588;10.010;2023-04-26T04:55:42;12.23;;;2.50;;
5279;SDS011;2663;53.588;10.010;2023-04-26T04:58:09;9.07;;;2.67;;
5279;SDS011;2663;53.588;10.010;2023-04-26T05:00:36;9.10;;;3.00;;
5279;SDS011;2663;53.588;10.010;2023-04-26T05:03:03;8.70;;;3.70;;
5279;SDS011;2663;53.588;10.010;2023-04-26T05:05:30;13.20;;;3.60;;
5279;SDS011;2663;53.588;10.010;2023-04-26T05:07:57;6.30;;;2.97;;
5279;SDS011;2663;53.588;10.010;2023-04-26T05:10:23;7.37;;;3.30;;
5279;SDS011;2663;53.588;10.010;2023-04-26T05:12:50;8.53;;;3.00;;
5279;SDS011;2663;53.588;10.010;2023-04-26T05:15:17;14.83;;;2.83;;
5279;SDS011;2663;53.588;10.010;2023-04-26T05:17:44;13.60;;;2.93;;
5279;SDS011;2663;53.588;10.010;2023-04-26T05:20:11;8.37;;;3.07;;
5279;SDS011;2663;53.588;10.010;2023-04-26T05:22:38;9.27;;;3.23;;
5279;SDS011;2663;53.588;10.010;2023-04-26T05:25:05;4.33;;;2.60;;
5279;SDS011;2663;53.588;10.010;2023-04-26T05:27:33;11.60;;;2.87;;
5279;SDS011;2663;53.588;10.010;2023-04-26T05:30:00;15.87;;;3.40;;
5279;SDS011;2663;53.588;10.010;2023-04-26T05:32:26;8.53;;;4.00;;
5279;SDS011;2663;53.588;10.010;2023-04-26T05:34:53;4.67;;;2.80;;
5279;SDS011;2663;53.588;10.010;2023-04-26T05:37:20;12.33;;;3.60;;
5279;SDS011;2663;53.588;10.010;2023-04-26T05:39:46;4.67;;;3.03;;
5279;SDS011;2663;53.588;10.010;2023-04-26T05:42:14;7.23;;;2.70;;
5279;SDS011;2663;53.588;10.010;2023-04-26T05:44:43;10.67;;;2.87;;
5279;SDS011;2663;53.588;10.010;2023-04-26T05:47:09;9.73;;;3.30;;
5279;SDS011;2663;53.588;10.010;2023-04-26T05:49:36;13.47;;;3.20;;
5279;SDS011;2663;53.588;10.010;2023-04-26T05:52:03;10.83;;;3.50;;
5279;SDS011;2663;53.588;10.010;2023-04-26T05:54:29;7.83;;;3.47;;
5279;SDS011;2663;53.588;10.010;2023-04-26T05:56:56;14.77;;;3.00;;
5279;SDS011;2663;53.588;10.010;2023-04-26T05:59:24;13.67;;;3.00;;
5279;SDS011;2663;53.588;10.010;2023-04-26T06:01:51;5.90;;;2.43;;
5279;SDS011;2663;53.588;10.010;2023-04-26T06:04:17;12.60;;;2.93;;
5279;SDS011;2663;53.588;10.010;2023-04-26T06:06:44;15.27;;;3.07;;
5279;SDS011;2663;53.588;10.010;2023-04-26T06:09:11;4.93;;;3.53;;
5279;SDS011;2663;53.588;10.010;2023-04-26T06:11:38;7.70;;;3.07;;
5279;SDS011;2663;53.588;10.010;2023-04-26T06:14:04;6.83;;;3.07;;
5279;SDS011;2663;53.588;10.010;2023-04-26T06:16:35;4.50;;;2.83;;
5279;SDS011;2663;53.588;10.010;2023-04-26T06:19:02;17.00;;;3.13;;
5279;SDS011;2663;53.588;10.010;2023-04-26T06:21:28;4.83;;;2.67;;
5279;SDS011;2663;53.588;10.010;2023-04-26T06:23:56;4.50;;;2.97;;
5279;SDS011;2663;53.588;10.010;2023-04-26T06:26:22;14.73;;;4.20;;
5279;SDS011;2663;53.588;10.010;2023-04-26T06:28:49;14.03;;;3.80;;
5279;SDS011;2663;53.588;10.010;2023-04-26T06:31:16;7.60;;;3.13;;
5279;SDS011;2663;53.588;10.010;2023-04-26T06:33:43;7.17;;;3.17;;
5279;SDS011;2663;53.588;10.010;2023-04-26T06:36:12;8.13;;;2.80;;
5279;SDS011;2663;53.588;10.010;2023-04-26T06:38:39;11.03;;;2.47;;
5279;SDS011;2663;53.588;10.010;2023-04-26T06:41:05;8.23;;;2.67;;
5279;SDS011;2663;53.588;10.010;2023-04-26T06:43:33;7.40;;;3.50;;
5279;SDS011;2663;53.588;10.010;2023-04-26T06:46:00;10.23;;;3.20;;
5279;SDS011;2663;53.588;10.010;2023-04-26T06:48:27;11.30;;;4.13;;
5279;SDS011;2663;53.588;10.010;2023-04-26T06:50:53;10.23;;;2.90;;
5279;SDS011;2663;53.588;10.010;2023-04-26T06:53:20;12.13;;;3.50;;
5279;SDS011;2663;53.588;10.010;2023-04-26T06:55:48;9.03;;;3.23;;
5279;SDS011;2663;53.588;10.010;2023-04-26T06:58:15;8.60;;;2.50;;
5279;SDS011;2663;53.588;10.010;2023-04-26T07:00:41;17.53;;;3.17;;
5279;SDS011;2663;53.588;10.010;2023-04-26T07:03:08;5.87;;;3.40;;
5279;SDS011;2663;53.588;10.010;2023-04-26T07:05:35;9.73;;;2.83;;
5279;SDS011;2663;53.588;10.010;2023-04-26T07:08:01;11.63;;;3.50;;
5279;SDS011;2663;53.588;10.010;2023-04-26T07:10:28;11.47;;;2.73;;
5279;SDS011;2663;53.588;10.010;2023-04-26T07:12:55;6.27;;;1.87;;
5279;SDS011;2663;53.588;10.010;2023-04-26T07:15:22;7.70;;;2.27;;
5279;SDS011;2663;53.588;10.010;2023-04-26T07:17:48;4.90;;;2.10;;
5279;SDS011;2663;53.588;10.010;2023-04-26T07:20:15;14.43;;;2.87;;
5279;SDS011;2663;53.588;10.010;2023-04-26T07:22:45;6.43;;;2.40;;
5279;SDS011;2663;53.588;10.010;2023-04-26T07:25:12;8.03;;;3.00;;
5279;SDS011;2663;53.588;10.010;2023-04-26T07:27:39;17.27;;;3.77;;
5279;SDS011;2663;53.588;10.010;2023-04-26T07:30:06;5.73;;;2.70;;
5279;SDS011;2663;53.588;10.010;2023-04-26T07:32:33;5.83;;;2.03;;
5279;SDS011;2663;53.588;10.010;2023-04-26T07:35:00;8.23;;;2.50;;
5279;SDS011;2663;53.588;10.010;2023-04-26T07:37:29;6.30;;;2.20;;
5279;SDS011;2663;53.588;10.010;2023-04-26T07:39:56;14.50;;;2.80;;
5279;SDS011;2663;53.588;10.010;2023-04-26T07:42:22;4.63;;;2.17;;
5279;SDS011;2663;53.588;10.010;2023-04-26T07:44:49;9.30;;;2.00;;
5279;SDS011;2663;53.588;10.010;2023-04-26T07:47:15;10.60;;;2.27;;
5279;SDS011;2663;53.588;10.010;2023-04-26T07:49:42;7.67;;;3.10;;
5279;SDS011;2663;53.588;10.010;2023-04-26T07:52:12;5.70;;;1.80;;
5279;SDS011;2663;53.588;10.010;2023-04-26T07:54:38;6.90;;;2.20;;
5279;SDS011;2663;53.588;10.010;2023-04-26T07:57:05;13.73;;;3.00;;
5279;SDS011;2663;53.588;10.010;2023-04-26T07:59:32;4.27;;;1.70;;
5279;SDS011;2663;53.588;10.010;2023-04-26T08:01:58;5.80;;;2.00;;
5279;SDS011;2663;53.588;10.010;2023-04-26T08:04:29;4.27;;;1.57;;
5279;SDS011;2663;53.588;10.010;2023-04-26T08:07:00;2.27;;;1.67;;
5279;SDS011;2663;53.588;10.010;2023-04-26T08:09:28;2.30;;;1.17;;
5279;SDS011;2663;53.588;10.010;2023-04-26T08:11:56;7.23;;;1.43;;
5279;SDS011;2663;53.588;10.010;2023-04-26T08:14:23;4.77;;;1.20;;
5279;SDS011;2663;53.588;10.010;2023-04-26T08:16:50;4.50;;;1.57;;
5279;SDS011;2663;53.588;10.010;2023-04-26T08:19:17;4.90;;;1.90;;
5279;SDS011;2663;53.588;10.010;2023-04-26T08:21:43;3.13;;;1.87;;
5279;SDS011;2663;53.588;10.010;2023-04-26T08:24:10;4.60;;;2.20;;
5279;SDS011;2663;53.588;10.010;2023-04-26T08:26:37;6.73;;;2.00;;
5279;SDS011;2663;53.588;10.010;2023-04-26T08:29:03;3.63;;;2.67;;
5279;SDS011;2663;53.588;10.010;2023-04-26T08:31:30;6.30;;;2.00;;
5279;SDS011;2663;53.588;10.010;2023-04-26T08:33:57;6.80;;;2.37;;
5279;SDS011;2663;53.588;10.010;2023-04-26T08:36:24;3.90;;;1.87;;
5279;SDS011;2663;53.588;10.010;2023-04-26T08:38:51;10.03;;;1.63;;
5279;SDS011;2663;53.588;10.010;2023-04-26T08:41:19;4.57;;;1.80;;
5279;SDS011;2663;53.588;10.010;2023-04-26T08:43:49;14.90;;;2.40;;
5279;SDS011;2663;53.588;10.010;2023-04-26T08:46:17;10.53;;;1.73;;
5279;SDS011;2663;53.588;10.010;2023-04-26T08:48:47;3.57;;;1.87;;
5279;SDS011;2663;53.588;10.010;2023-04-26T08:51:19;8.20;;;2.33;;
5279;SDS011;2663;53.588;10.010;2023-04-26T08:53:47;7.17;;;2.20;;
5279;SDS011;2663;53.588;10.010;2023-04-26T08:56:20;18.47;;;3.60;;
5279;SDS011;2663;53.588;10.010;2023-04-26T08:58:48;5.87;;;2.10;;
5279;SDS011;2663;53.588;10.010;2023-04-26T09:01:15;3.37;;;1.73;;
5279;SDS011;2663;53.588;10.010;2023-04-26T09:03:43;11.53;;;2.53;;
5279;SDS011;2663;53.588;10.010;2023-04-26T09:06:10;8.00;;;2.83;;
5279;SDS011;2663;53.588;10.010;2023-04-26T09:08:37;8.10;;;3.23;;
5279;SDS011;2663;53.588;10.010;2023-04-26T09:11:06;6.97;;;3.10;;
5279;SDS011;2663;53.588;10.010;2023-04-26T09:13:33;10.23;;;2.10;;
5279;SDS011;2663;53.588;10.010;2023-04-26T09:15:59;5.70;;;2.67;;
5279;SDS011;2663;53.588;10.010;2023-04-26T09:18:30;11.60;;;3.10;;
5279;SDS011;2663;53.588;10.010;2023-04-26T09:21:02;9.03;;;2.47;;
5279;SDS011;2663;53.588;10.010;2023-04-26T09:23:30;15.93;;;2.80;;
5279;SDS011;2663;53.588;10.010;2023-04-26T09:26:16;4.40;;;2.40;;
5279;SDS011;2663;53.588;10.010;2023-04-26T09:28:44;11.33;;;2.17;;
5279;SDS011;2663;53.588;10.010;2023-04-26T09:31:34;5.60;;;2.40;;
5279;SDS011;2663;53.588;10.010;2023-04-26T09:34:03;12.70;;;2.37;;
5279;SDS011;2663;53.588;10.010;2023-04-26T09:36:30;10.73;;;2.20;;
5279;SDS011;2663;53.588;10.010;2023-04-26T09:38:57;2.20;;;1.47;;
5279;SDS011;2663;53.588;10.010;2023-04-26T09:41:29;5.60;;;1.80;;
5279;SDS011;2663;53.588;10.010;2023-04-26T09:44:19;2.13;;;1.60;;
5279;SDS011;2663;53.588;10.010;2023-04-26T09:49:45;1.23;;;1.23;;
5279;SDS011;2663;53.588;10.010;2023-04-26T09:52:13;1.37;;;1.20;;
5279;SDS011;2663;53.588;10.010;2023-04-26T09:54:45;4.17;;;1.43;;
5279;SDS011;2663;53.588;10.010;2023-04-26T09:57:14;6.20;;;1.40;;
5279;SDS011;2663;53.588;10.010;2023-04-26T09:59:45;6.10;;;1.30;;
5279;SDS011;2663;53.588;10.010;2023-04-26T10:04:49;2.37;;;1.10;;
5279;SDS011;2663;53.588;10.010;2023-04-26T10:07:19;5.27;;;1.30;;
5279;SDS011;2663;53.588;10.010;2023-04-26T10:09:48;8.57;;;1.40;;
5279;SDS011;2663;53.588;10.010;2023-04-26T10:12:16;4.87;;;1.17;;
5279;SDS011;2663;53.588;10.010;2023-04-26T10:14:44;2.93;;;1.67;;
5279;SDS011;2663;53.588;10.010;2023-04-26T10:17:12;2.63;;;1.13;;
5279;SDS011;2663;53.588;10.010;2023-04-26T10:19:42;1.60;;;1.10;;
5279;SDS011;2663;53.588;10.010;2023-04-26T10:22:20;2.80;;;1.00;;
5279;SDS011;2663;53.588;10.010;2023-04-26T10:24:48;3.33;;;1.17;;
5279;SDS011;2663;53.588;10.010;2023-04-26T10:27:25;1.60;;;1.07;;
5279;SDS011;2663;53.588;10.010;2023-04-26T10:30:12;2.77;;;1.00;;
5279;SDS011;2663;53.588;10.010;2023-04-26T10:35:18;2.03;;;1.17;;
5279;SDS011;2663;53.588;10.010;2023-04-26T10:40:28;1.90;;;1.00;;
5279;SDS011;2663;53.588;10.010;2023-04-26T10:43:29;2.97;;;0.90;;
5279;SDS011;2663;53.588;10.010;2023-04-26T10:45:54;2.50;;;0.90;;
5279;SDS011;2663;53.588;10.010;2023-04-26T10:48:27;2.50;;;1.30;;
5279;SDS011;2663;53.588;10.010;2023-04-26T10:53:30;10.23;;;1.47;;
5279;SDS011;2663;53.588;10.010;2023-04-26T10:55:57;7.97;;;1.73;;
5279;SDS011;2663;53.588;10.010;2023-04-26T11:01:08;13.80;;;1.97;;
5279;SDS011;2663;53.588;10.010;2023-04-26T11:03:36;10.43;;;1.07;;
5279;SDS011;2663;53.588;10.010;2023-04-26T11:06:06;2.90;;;1.63;;
5279;SDS011;2663;53.588;10.010;2023-04-26T11:08:34;4.13;;;1.23;;
5279;SDS011;2663;53.588;10.010;2023-04-26T11:13:32;7.00;;;1.43;;
5279;SDS011;2663;53.588;10.010;2023-04-26T11:16:02;6.37;;;1.20;;
5279;SDS011;2663;53.588;10.010;2023-04-26T11:18:30;4.93;;;1.37;;
5279;SDS011;2663;53.588;10.010;2023-04-26T11:20:58;3.70;;;1.27;;
5279;SDS011;2663;53.588;10.010;2023-04-26T11:23:26;3.90;;;1.30;;
5279;SDS011;2663;53.588;10.010;2023-04-26T11:26:00;1.80;;;0.97;;
5279;SDS011;2663;53.588;10.010;2023-04-26T11:28:35;7.13;;;1.20;;
5279;SDS011;2663;53.588;10.010;2023-04-26T11:31:03;3.57;;;1.17;;
5279;SDS011;2663;53.588;10.010;2023-04-26T11:33:31;6.53;;;0.90;;
5279;SDS011;2663;53.588;10.010;2023-04-26T11:36:01;3.80;;;1.10;;
5279;SDS011;2663;53.588;10.010;2023-04-26T11:38:28;4.53;;;1.20;;
5279;SDS011;2663;53.588;10.010;2023-04-26T11:40:55;6.80;;;1.27;;
5279;SDS011;2663;53.588;10.010;2023-04-26T11:43:36;2.93;;;1.10;;
5279;SDS011;2663;53.588;10.010;2023-04-26T11:46:04;2.83;;;1.13;;
5279;SDS011;2663;53.588;10.010;2023-04-26T11:48:33;1.77;;;1.10;;
5279;SDS011;2663;53.588;10.010;2023-04-26T11:51:02;5.10;;;1.00;;
5279;SDS011;2663;53.588;10.010;2023-04-26T11:54:02;2.60;;;1.20;;
5279;SDS011;2663;53.588;10.010;2023-04-26T11:56:25;1.30;;;0.77;;
5279;SDS011;2663;53.588;10.010;2023-04-26T11:58:51;3.13;;;0.90;;
5279;SDS011;2663;53.588;10.010;2023-04-26T12:03:51;10.20;;;3.60;;
5279;SDS011;2663;53.588;10.010;2023-04-26T12:06:20;7.37;;;1.27;;
5279;SDS011;2663;53.588;10.010;2023-04-26T12:08:55;4.93;;;1.30;;
5279;SDS011;2663;53.588;10.010;2023-04-26T12:11:22;9.30;;;1.10;;
5279;SDS011;2663;53.588;10.010;2023-04-26T12:13:48;2.50;;;1.00;;
5279;SDS011;2663;53.588;10.010;2023-04-26T12:16:15;14.57;;;2.30;;
5279;SDS011;2663;53.588;10.010;2023-04-26T12:18:48;10.63;;;1.30;;
5279;SDS011;2663;53.588;10.010;2023-04-26T12:21:16;3.60;;;1.30;;
5279;SDS011;2663;53.588;10.010;2023-04-26T12:23:43;8.23;;;1.40;;
5279;SDS011;2663;53.588;10.010;2023-04-26T12:26:13;2.70;;;0.83;;
5279;SDS011;2663;53.588;10.010;2023-04-26T12:28:40;2.43;;;1.00;;
5279;SDS011;2663;53.588;10.010;2023-04-26T12:31:06;8.43;;;1.20;;
5279;SDS011;2663;53.588;10.010;2023-04-26T12:33:34;3.73;;;0.87;;
5279;SDS011;2663;53.588;10.010;2023-04-26T12:36:10;5.50;;;1.40;;
5279;SDS011;2663;53.588;10.010;2023-04-26T12:38:38;11.43;;;1.53;;
5279;SDS011;2663;53.588;10.010;2023-04-26T12:41:05;5.20;;;1.53;;
5279;SDS011;2663;53.588;10.010;2023-04-26T12:43:32;7.27;;;1.57;;
5279;SDS011;2663;53.588;10.010;2023-04-26T12:45:59;6.60;;;1.67;;
5279;SDS011;2663;53.588;10.010;2023-04-26T12:48:26;2.93;;;1.00;;
5279;SDS011;2663;53.588;10.010;2023-04-26T12:50:53;2.00;;;0.83;;
5279;SDS011;2663;53.588;10.010;2023-04-26T12:53:20;5.87;;;1.63;;
5279;SDS011;2663;53.588;10.010;2023-04-26T12:55:47;4.80;;;1.27;;
5279;SDS011;2663;53.588;10.010;2023-04-26T12:58:14;5.23;;;1.10;;
5279;SDS011;2663;53.588;10.010;2023-04-26T13:00:41;6.27;;;1.00;;
5279;SDS011;2663;53.588;10.010;2023-04-26T13:03:09;7.20;;;1.23;;
5279;SDS011;2663;53.588;10.010;2023-04-26T13:05:39;8.97;;;1.50;;
5279;SDS011;2663;53.588;10.010;2023-04-26T13:08:06;1.23;;;0.90;;
5279;SDS011;2663;53.588;10.010;2023-04-26T13:10:33;2.43;;;1.00;;
5279;SDS011;2663;53.588;10.010;2023-04-26T13:13:00;4.47;;;1.27;;
5279;SDS011;2663;53.588;10.010;2023-04-26T13:15:26;2.50;;;1.00;;
5279;SDS011;2663;53.588;10.010;2023-04-26T13:17:54;3.13;;;1.40;;
5279;SDS011;2663;53.588;10.010;2023-04-26T13:20:21;10.00;;;1.30;;
5279;SDS011;2663;53.588;10.010;2023-04-26T13:22:51;7.10;;;1.50;;
5279;SDS011;2663;53.588;10.010;2023-04-26T13:25:18;8.63;;;1.43;;
5279;SDS011;2663;53.588;10.010;2023-04-26T13:27:45;5.43;;;1.73;;
5279;SDS011;2663;53.588;10.010;2023-04-26T13:30:12;4.13;;;0.80;;
5279;SDS011;2663;53.588;10.010;2023-04-26T13:32:39;3.90;;;1.17;;
5279;SDS011;2663;53.588;10.010;2023-04-26T13:35:06;5.40;;;1.00;;
5279;SDS011;2663;53.588;10.010;2023-04-26T13:37:33;5.47;;;1.60;;
5279;SDS011;2663;53.588;10.010;2023-04-26T13:39:59;2.50;;;0.80;;
5279;SDS011;2663;53.588;10.010;2023-04-26T13:42:26;6.13;;;1.47;;
5279;SDS011;2663;53.588;10.010;2023-04-26T13:44:53;5.43;;;1.20;;
5279;SDS011;2663;53.588;10.010;2023-04-26T13:47:20;6.20;;;1.10;;
5279;SDS011;2663;53.588;10.010;2023-04-26T13:49:47;2.87;;;0.90;;
5279;SDS011;2663;53.588;10.010;2023-04-26T13:52:13;4.93;;;1.10;;
5279;SDS011;2663;53.588;10.010;2023-04-26T13:54:40;2.60;;;1.10;;
5279;SDS011;2663;53.588;10.010;2023-04-26T13:57:06;1.27;;;0.80;;
5279;SDS011;2663;53.588;10.010;2023-04-26T13:59:33;1.83;;;1.13;;
5279;SDS011;2663;53.588;10.010;2023-04-26T14:02:00;1.43;;;1.20;;
5279;SDS011;2663;53.588;10.010;2023-04-26T14:04:26;11.73;;;1.07;;
5279;SDS011;2663;53.588;10.010;2023-04-26T14:06:53;2.43;;;1.00;;
5279;SDS011;2663;53.588;10.010;2023-04-26T14:09:20;3.50;;;0.90;;
5279;SDS011;2663;53.588;10.010;2023-04-26T14:11:47;3.17;;;0.63;;
5279;SDS011;2663;53.588;10.010;2023-04-26T14:14:32;2.60;;;1.50;;
5279;SDS011;2663;53.588;10.010;2023-04-26T14:16:58;5.50;;;1.23;;
5279;SDS011;2663;53.588;10.010;2023-04-26T14:19:25;6.80;;;1.17;;
5279;SDS011;2663;53.588;10.010;2023-04-26T14:21:52;2.67;;;1.10;;
5279;SDS011;2663;53.588;10.010;2023-04-26T14:24:19;1.37;;;1.03;;
5279;SDS011;2663;53.588;10.010;2023-04-26T14:26:45;6.40;;;1.20;;
5279;SDS011;2663;53.588;10.010;2023-04-26T14:29:12;1.30;;;0.80;;
5279;SDS011;2663;53.588;10.010;2023-04-26T14:31:39;1.90;;;0.83;;
5279;SDS011;2663;53.588;10.010;2023-04-26T14:34:05;4.83;;;1.30;;
5279;SDS011;2663;53.588;10.010;2023-04-26T14:36:32;3.27;;;0.80;;
5279;SDS011;2663;53.588;10.010;2023-04-26T14:38:59;6.03;;;1.50;;
5279;SDS011;2663;53.588;10.010;2023-04-26T14:41:26;2.07;;;0.80;;
5279;SDS011;2663;53.588;10.010;2023-04-26T14:43:52;3.30;;;1.50;;
5279;SDS011;2663;53.588;10.010;2023-04-26T14:46:19;6.37;;;1.40;;
5279;SDS011;2663;53.588;10.010;2023-04-26T14:48:46;3.00;;;1.10;;
5279;SDS011;2663;53.588;10.010;2023-04-26T14:51:12;5.37;;;1.50;;
5279;SDS011;2663;53.588;10.010;2023-04-26T14:53:39;1.13;;;0.70;;
5279;SDS011;2663;53.588;10.010;2023-04-26T14:56:06;6.83;;;1.80;;
5279;SDS011;2663;53.588;10.010;2023-04-26T14:58:34;2.07;;;0.80;;
5279;SDS011;2663;53.588;10.010;2023-04-26T15:01:01;2.10;;;0.73;;
5279;SDS011;2663;53.588;10.010;2023-04-26T15:03:28;7.43;;;1.10;;
5279;SDS011;2663;53.588;10.010;2023-04-26T15:05:55;8.20;;;1.47;;
5279;SDS011;2663;53.588;10.010;2023-04-26T15:08:21;2.63;;;1.00;;
5279;SDS011;2663;53.588;10.010;2023-04-26T15:10:48;1.10;;;1.00;;
5279;SDS011;2663;53.588;10.010;2023-04-26T15:13:16;2.90;;;1.17;;
5279;SDS011;2663;53.588;10.010;2023-04-26T15:15:43;1.43;;;1.00;;
5279;SDS011;2663;53.588;10.010;2023-04-26T15:18:10;1.90;;;0.93;;
5279;SDS011;2663;53.588;10.010;2023-04-26T15:20:39;7.10;;;1.20;;
5279;SDS011;2663;53.588;10.010;2023-04-26T15:23:06;3.53;;;1.20;;